createdAt,value
2023-04-29T00:02:24.221Z,8.47
2023-04-29T00:04:50.735Z,10.40
2023-04-29T00:07:17.313Z,11.73
2023-04-29T00:09:43.896Z,8.33
2023-04-29T00:12:10.823Z,8.47
2023-04-29T00:14:37.202Z,9.67
2023-04-29T00:17:03.777Z,7.97
2023-04-29T00:19:30.184Z,8.97
2023-04-29T00:21:56.447Z,10.17
2023-04-29T00:24:22.755Z,9.07
2023-04-29T00:26:48.999Z,8.47
2023-04-29T00:29:15.230Z,11.70
2023-04-29T00:31:41.791Z,10.33
2023-04-29T00:34:08.057Z,9.67
2023-04-29T00:36:34.297Z,14.03
2023-04-29T00:39:00.578Z,10.03
2023-04-29T00:41:26.955Z,9.13
2023-04-29T00:43:53.212Z,10.97
2023-04-29T00:46:19.835Z,8.60
2023-04-29T00:48:46.170Z,10.47
2023-04-29T00:51:13.231Z,9.10
2023-04-29T00:53:39.515Z,9.37
2023-04-29T00:56:07.504Z,10.17
2023-04-29T00:58:35.374Z,8.97
2023-04-29T01:01:02.152Z,8.37
2023-04-29T01:03:29.166Z,10.23
2023-04-29T01:06:13.066Z,9.57
2023-04-29T01:08:48.682Z,10.30
2023-04-29T01:11:16.693Z,11.40
2023-04-29T01:13:46.132Z,9.90
2023-04-29T01:16:17.840Z,9.87
2023-04-29T01:18:50.131Z,9.10
2023-04-29T01:21:16.429Z,13.67
2023-04-29T01:23:42.683Z,11.33
2023-04-29T01:26:09.183Z,12.10
2023-04-29T01:28:42.847Z,14.40
2023-04-29T01:31:27.707Z,14.07
2023-04-29T01:34:08.362Z,11.93
2023-04-29T01:36:57.442Z,10.00
2023-04-29T01:39:33.515Z,11.07
2023-04-29T01:42:05.761Z,10.47
2023-04-29T01:44:32.783Z,12.43
2023-04-29T01:46:59.590Z,12.87
2023-04-29T01:49:26.472Z,12.33
2023-04-29T01:51:52.767Z,10.97
2023-04-29T01:54:19.100Z,12.90
2023-04-29T01:56:45.495Z,15.30
2023-04-29T01:59:11.959Z,13.67
2023-04-29T02:01:38.269Z,13.30
2023-04-29T02:04:04.733Z,12.47
2023-04-29T02:06:32.248Z,12.57
2023-04-29T02:08:58.714Z,15.40
2023-04-29T02:11:25.056Z,12.83
2023-04-29T02:13:51.316Z,12.07
2023-04-29T02:16:17.893Z,13.67
2023-04-29T02:18:44.239Z,14.03
2023-04-29T02:21:10.510Z,13.80
2023-04-29T02:23:36.869Z,13.77
2023-04-29T02:26:06.182Z,15.33
2023-04-29T02:28:33.211Z,15.57
2023-04-29T02:30:59.522Z,16.33
2023-04-29T02:33:26.038Z,14.57
2023-04-29T02:35:52.330Z,15.87
2023-04-29T02:38:18.673Z,15.23
2023-04-29T02:40:45.610Z,18.13
2023-04-29T02:43:12.245Z,15.33
2023-04-29T02:45:39.089Z,15.50
2023-04-29T02:48:05.881Z,13.60
2023-04-29T02:50:32.921Z,16.00
2023-04-29T02:52:59.245Z,17.37
2023-04-29T02:55:26.070Z,13.53
2023-04-29T02:57:52.890Z,16.57
2023-04-29T03:00:19.451Z,15.60
2023-04-29T03:02:45.826Z,17.20
2023-04-29T03:05:12.204Z,18.13
2023-04-29T03:07:38.748Z,19.57
2023-04-29T03:10:05.417Z,18.93
2023-04-29T03:12:31.726Z,17.27
2023-04-29T03:14:57.991Z,16.27
2023-04-29T03:17:24.356Z,18.17
2023-04-29T03:19:51.411Z,17.57
2023-04-29T03:22:18.032Z,18.13
2023-04-29T03:24:44.671Z,18.20
2023-04-29T03:27:11.307Z,19.77
2023-04-29T03:29:37.784Z,19.13
2023-04-29T03:32:04.129Z,20.97
2023-04-29T03:34:30.430Z,18.77
2023-04-29T03:36:57.449Z,19.43
2023-04-29T03:39:32.971Z,18.27
2023-04-29T03:41:59.765Z,17.87
2023-04-29T03:44:26.265Z,20.23
2023-04-29T03:46:52.570Z,20.63
2023-04-29T03:49:18.815Z,19.10
2023-04-29T03:51:47.907Z,22.13
2023-04-29T03:54:14.272Z,20.27
2023-04-29T03:56:41.206Z,21.47
2023-04-29T03:59:07.531Z,21.13
2023-04-29T04:01:33.853Z,19.57
2023-04-29T04:04:00.468Z,20.53
2023-04-29T04:06:26.978Z,23.43
2023-04-29T04:08:53.275Z,23.00
2023-04-29T04:11:19.569Z,21.30
2023-04-29T04:13:45.865Z,22.03
2023-04-29T04:16:12.281Z,23.27
2023-04-29T04:18:38.832Z,22.53
2023-04-29T04:21:05.971Z,20.93
2023-04-29T04:23:32.224Z,21.27
2023-04-29T04:25:58.535Z,20.70
2023-04-29T04:28:24.829Z,22.60
2023-04-29T04:30:51.126Z,21.57
2023-04-29T04:33:17.507Z,21.27
2023-04-29T04:35:43.988Z,21.97
2023-04-29T04:38:11.420Z,22.50
2023-04-29T04:40:41.122Z,25.50
2023-04-29T04:43:07.376Z,24.33
2023-04-29T04:45:34.228Z,22.80
2023-04-29T04:48:00.771Z,24.47
2023-04-29T04:50:30.240Z,25.67
2023-04-29T04:52:56.857Z,24.77
2023-04-29T04:55:23.443Z,26.37
2023-04-29T04:57:50.309Z,24.87
2023-04-29T05:00:17.474Z,24.57
2023-04-29T05:02:44.088Z,23.97
2023-04-29T05:05:10.533Z,28.20
2023-04-29T05:07:36.876Z,24.77
2023-04-29T05:10:03.484Z,25.57
2023-04-29T05:12:31.017Z,25.47
2023-04-29T05:14:57.638Z,25.77
2023-04-29T05:17:23.926Z,25.17
2023-04-29T05:19:50.451Z,25.77
2023-04-29T05:22:17.351Z,23.67
2023-04-29T05:24:43.627Z,25.97
2023-04-29T05:27:09.883Z,25.87
2023-04-29T05:29:36.596Z,25.83
2023-04-29T05:32:02.970Z,28.23
2023-04-29T05:34:29.343Z,26.37
2023-04-29T05:36:55.653Z,25.77
2023-04-29T05:39:22.883Z,26.23
2023-04-29T05:41:49.224Z,26.50
2023-04-29T05:44:15.628Z,28.97
2023-04-29T05:46:41.950Z,26.63
2023-04-29T05:49:09.033Z,26.00
2023-04-29T05:51:35.437Z,25.33
2023-04-29T05:54:01.727Z,28.80
2023-04-29T05:56:28.058Z,26.27
2023-04-29T05:58:54.410Z,27.27
2023-04-29T06:01:20.694Z,25.10
2023-04-29T06:03:47.189Z,25.57
2023-04-29T06:06:13.958Z,27.13
2023-04-29T06:08:43.598Z,25.93
2023-04-29T06:11:10.785Z,25.33
2023-04-29T06:13:37.020Z,30.47
2023-04-29T06:16:03.672Z,24.43
2023-04-29T06:18:30.046Z,27.33
2023-04-29T06:20:56.279Z,25.73
2023-04-29T06:23:22.527Z,27.10
2023-04-29T06:25:50.177Z,24.93
2023-04-29T06:28:17.820Z,24.57
2023-04-29T06:30:45.741Z,23.27
2023-04-29T06:33:12.525Z,23.17
2023-04-29T06:35:39.400Z,23.27
2023-04-29T06:38:08.096Z,19.17
2023-04-29T06:40:34.783Z,21.33
2023-04-29T06:43:02.162Z,20.53
2023-04-29T06:45:28.792Z,17.87
2023-04-29T06:47:55.551Z,18.87
2023-04-29T06:50:22.676Z,18.53
2023-04-29T06:52:49.288Z,19.13
2023-04-29T06:55:15.570Z,19.27
2023-04-29T06:57:41.975Z,20.53
2023-04-29T07:00:08.636Z,19.07
2023-04-29T07:02:35.038Z,18.80
2023-04-29T07:05:01.386Z,17.33
2023-04-29T07:07:28.179Z,16.97
2023-04-29T07:09:54.677Z,17.23
2023-04-29T07:12:21.114Z,18.20
2023-04-29T07:14:47.873Z,18.47
2023-04-29T07:17:14.394Z,23.63
2023-04-29T07:19:40.949Z,23.40
2023-04-29T07:22:07.244Z,25.70
2023-04-29T07:24:33.533Z,29.27
2023-04-29T07:26:59.754Z,25.27
2023-04-29T07:29:26.051Z,23.43
2023-04-29T07:31:52.285Z,24.73
2023-04-29T07:34:18.526Z,25.37
2023-04-29T07:36:44.773Z,22.30
2023-04-29T07:39:12.454Z,28.77
2023-04-29T07:41:38.807Z,22.77
2023-04-29T07:44:05.123Z,22.63
2023-04-29T07:46:31.532Z,23.47
2023-04-29T07:48:58.815Z,25.23
2023-04-29T07:51:25.131Z,20.47
2023-04-29T07:53:51.629Z,19.73
2023-04-29T07:56:18.389Z,19.70
2023-04-29T07:58:44.631Z,19.87
2023-04-29T08:01:12.216Z,21.23
2023-04-29T08:03:41.433Z,21.10
2023-04-29T08:06:08.336Z,21.00
2023-04-29T08:08:34.910Z,16.10
2023-04-29T08:11:01.286Z,16.93
2023-04-29T08:13:27.583Z,16.23
2023-04-29T08:15:54.071Z,16.37
2023-04-29T08:18:21.313Z,16.10
2023-04-29T08:20:49.191Z,17.10
2023-04-29T08:23:15.745Z,14.37
2023-04-29T08:25:43.457Z,14.00
2023-04-29T08:28:10.150Z,14.90
2023-04-29T08:30:40.852Z,14.63
2023-04-29T08:33:07.405Z,16.10
2023-04-29T08:35:33.841Z,15.20
2023-04-29T08:38:00.797Z,15.80
2023-04-29T08:40:27.156Z,15.03
2023-04-29T08:42:54.489Z,14.30
2023-04-29T08:45:23.002Z,17.83
2023-04-29T08:47:51.206Z,14.37
2023-04-29T08:50:18.494Z,15.23
2023-04-29T08:52:44.750Z,15.63
2023-04-29T08:55:10.998Z,15.10
2023-04-29T08:57:40.461Z,17.17
2023-04-29T09:00:10.615Z,14.77
2023-04-29T09:02:56.325Z,18.17
2023-04-29T09:05:24.025Z,18.40
2023-04-29T09:07:51.451Z,17.53
2023-04-29T09:10:18.192Z,19.07
2023-04-29T09:12:44.897Z,19.40
2023-04-29T09:15:11.310Z,17.43
2023-04-29T09:17:48.053Z,19.33
2023-04-29T09:20:20.320Z,17.63
2023-04-29T09:22:57.426Z,21.97
2023-04-29T09:25:23.811Z,21.17
2023-04-29T09:27:50.383Z,23.97
2023-04-29T09:30:16.980Z,23.37
2023-04-29T09:32:44.958Z,24.93
2023-04-29T09:35:29.699Z,22.27
2023-04-29T09:38:08.769Z,22.83
2023-04-29T09:40:43.361Z,25.23
2023-04-29T09:43:18.285Z,25.13
2023-04-29T09:45:46.261Z,28.00
2023-04-29T09:48:13.133Z,29.67
2023-04-29T09:50:40.126Z,29.47
2023-04-29T09:53:10.812Z,29.90
2023-04-29T09:55:58.070Z,30.90
2023-04-29T09:58:37.039Z,32.40
2023-04-29T10:01:04.078Z,37.50
2023-04-29T10:03:32.752Z,35.73
2023-04-29T10:06:00.135Z,37.90
2023-04-29T10:08:27.138Z,39.13
2023-04-29T10:10:57.645Z,38.57
2023-04-29T10:13:26.025Z,43.33
2023-04-29T10:15:55.105Z,40.70
2023-04-29T10:18:22.130Z,50.67
2023-04-29T10:20:48.838Z,52.37
2023-04-29T10:23:15.413Z,47.90
2023-04-29T10:25:42.759Z,50.23
2023-04-29T10:28:14.343Z,55.23
2023-04-29T10:30:42.808Z,51.40
2023-04-29T10:33:10.410Z,45.50
2023-04-29T10:35:37.689Z,53.43
2023-04-29T10:38:10.674Z,50.17
2023-04-29T10:40:41.135Z,51.47
2023-04-29T10:43:07.541Z,49.90
2023-04-29T10:45:37.548Z,50.37
2023-04-29T10:48:06.809Z,49.03
2023-04-29T10:50:33.981Z,49.03
2023-04-29T10:53:03.905Z,37.80
2023-04-29T10:55:30.766Z,43.47
2023-04-29T10:57:57.342Z,37.67
2023-04-29T11:00:26.771Z,36.30
2023-04-29T11:03:00.352Z,32.43
2023-04-29T11:05:30.969Z,33.50
2023-04-29T11:08:13.623Z,36.10
2023-04-29T11:10:43.436Z,31.17
2023-04-29T11:13:26.298Z,32.83
2023-04-29T11:16:05.325Z,33.67
2023-04-29T11:18:32.155Z,33.60
2023-04-29T11:21:04.164Z,30.37
2023-04-29T11:23:30.831Z,30.33
2023-04-29T11:25:57.225Z,31.60
2023-04-29T11:28:27.546Z,28.97
2023-04-29T11:30:53.956Z,28.53
2023-04-29T11:33:20.453Z,25.27
2023-04-29T11:35:47.279Z,26.97
2023-04-29T11:38:13.719Z,23.63
2023-04-29T11:40:48.451Z,27.90
2023-04-29T11:43:18.569Z,23.87
2023-04-29T11:45:46.305Z,23.47
2023-04-29T11:48:19.512Z,24.57
2023-04-29T11:50:46.963Z,21.43
2023-04-29T11:53:13.360Z,26.13
2023-04-29T11:55:41.879Z,23.13
2023-04-29T11:58:08.167Z,22.10
2023-04-29T12:00:34.833Z,22.33
2023-04-29T12:03:01.420Z,21.37
2023-04-29T12:05:27.883Z,22.27
2023-04-29T12:07:57.079Z,23.57
2023-04-29T12:10:23.352Z,23.33
2023-04-29T12:12:49.863Z,20.03
2023-04-29T12:15:16.230Z,24.63
2023-04-29T12:17:42.961Z,19.87
2023-04-29T12:20:10.564Z,21.40
2023-04-29T12:22:37.454Z,21.17
2023-04-29T12:25:04.115Z,17.13
2023-04-29T12:27:30.545Z,20.63
2023-04-29T12:29:57.330Z,21.37
2023-04-29T12:32:24.510Z,23.23
2023-04-29T12:34:52.720Z,20.40
2023-04-29T12:37:22.237Z,19.17
2023-04-29T12:39:49.785Z,18.10
2023-04-29T12:42:17.108Z,18.00
2023-04-29T12:44:47.546Z,17.27
2023-04-29T12:47:14.124Z,18.07
2023-04-29T12:49:44.184Z,14.77
2023-04-29T12:52:10.896Z,16.33
2023-04-29T12:54:37.947Z,15.70
2023-04-29T12:57:04.427Z,14.00
2023-04-29T12:59:30.915Z,12.83
2023-04-29T13:01:57.242Z,13.73
2023-04-29T13:04:23.997Z,11.90
2023-04-29T13:06:54.220Z,10.73
2023-04-29T13:09:28.360Z,10.27
2023-04-29T13:11:54.648Z,10.40
2023-04-29T13:14:21.384Z,10.53
2023-04-29T13:16:47.719Z,6.70
2023-04-29T13:19:30.447Z,8.67
2023-04-29T13:22:00.339Z,10.17
2023-04-29T13:24:27.265Z,6.83
2023-04-29T13:26:54.519Z,6.33
2023-04-29T13:29:20.832Z,6.57
2023-04-29T13:31:47.115Z,6.17
2023-04-29T13:34:13.575Z,5.97
2023-04-29T13:36:39.949Z,5.80
2023-04-29T13:39:09.888Z,6.43
2023-04-29T13:41:36.374Z,5.37
2023-04-29T13:44:03.877Z,8.57
2023-04-29T13:46:32.549Z,7.20
2023-04-29T13:54:48.260Z,8.03
2023-04-29T13:57:29.885Z,9.00
2023-04-29T13:59:42.897Z,11.63
2023-04-29T14:04:43.578Z,10.57
2023-04-29T14:07:10.030Z,14.13
2023-04-29T14:09:36.287Z,12.33
2023-04-29T14:12:02.497Z,12.73
2023-04-29T14:14:28.737Z,13.33
2023-04-29T14:16:55.032Z,13.07
2023-04-29T14:19:21.316Z,12.93
2023-04-29T14:21:47.594Z,11.67
2023-04-29T14:24:13.837Z,11.07
2023-04-29T14:26:40.292Z,11.53
2023-04-29T14:29:07.202Z,10.93
2023-04-29T14:31:38.227Z,8.87
2023-04-29T14:34:05.030Z,12.30
2023-04-29T14:36:32.769Z,10.43
2023-04-29T14:39:00.585Z,11.17
2023-04-29T14:41:27.373Z,13.13
2023-04-29T14:43:54.335Z,10.43
2023-04-29T14:46:22.274Z,10.03
2023-04-29T14:48:49.379Z,10.37
2023-04-29T14:51:15.838Z,11.07
2023-04-29T14:53:42.937Z,10.68
2023-04-29T14:56:09.195Z,11.80
2023-04-29T14:58:35.440Z,12.37
2023-04-29T15:01:01.678Z,10.40
2023-04-29T15:03:27.975Z,9.37
2023-04-29T15:05:55.079Z,9.40
2023-04-29T15:08:21.725Z,12.67
2023-04-29T15:10:48.151Z,8.57
2023-04-29T15:13:14.466Z,10.13
2023-04-29T15:15:40.757Z,9.63
2023-04-29T15:18:08.789Z,8.03
2023-04-29T15:20:36.163Z,10.47
2023-04-29T15:23:04.164Z,9.83
2023-04-29T15:25:30.967Z,10.93
2023-04-29T15:27:59.002Z,10.23
2023-04-29T15:30:26.536Z,13.40
2023-04-29T15:32:53.140Z,7.00
2023-04-29T15:35:19.394Z,9.57
2023-04-29T15:37:45.950Z,8.67
2023-04-29T15:40:12.415Z,8.33
2023-04-29T15:42:38.714Z,7.70
2023-04-29T15:45:06.902Z,9.37
2023-04-29T15:47:33.156Z,11.60
2023-04-29T15:49:59.401Z,11.23
2023-04-29T15:52:25.697Z,8.43
2023-04-29T15:54:52.066Z,8.67
2023-04-29T15:57:18.320Z,8.00
2023-04-29T15:59:44.594Z,8.73
2023-04-29T16:02:11.738Z,7.40
2023-04-29T16:04:38.588Z,8.47
2023-04-29T16:07:05.481Z,11.87
2023-04-29T16:09:34.886Z,8.13
2023-04-29T16:12:02.059Z,8.83
2023-04-29T16:14:28.525Z,8.53
2023-04-29T16:16:55.875Z,13.57
2023-04-29T16:19:22.307Z,11.03
2023-04-29T16:21:48.604Z,8.53
2023-04-29T16:24:15.295Z,12.37
2023-04-29T16:26:41.757Z,10.93
2023-04-29T16:29:08.992Z,9.97
2023-04-29T16:31:35.395Z,9.90
2023-04-29T16:34:03.146Z,11.33
2023-04-29T16:36:30.010Z,8.93
2023-04-29T16:38:57.230Z,10.37
2023-04-29T16:41:24.005Z,12.83
2023-04-29T16:43:50.336Z,10.33
2023-04-29T16:46:16.763Z,8.87
2023-04-29T16:48:43.131Z,11.90
2023-04-29T16:51:09.662Z,9.90
2023-04-29T16:53:36.504Z,12.43
2023-04-29T16:56:03.134Z,9.63
2023-04-29T16:58:30.093Z,8.37
2023-04-29T17:00:56.570Z,7.57
2023-04-29T17:03:22.884Z,10.00
2023-04-29T17:05:49.228Z,7.57
2023-04-29T17:08:15.535Z,6.97
2023-04-29T17:10:41.839Z,10.03
2023-04-29T17:13:08.129Z,7.57
2023-04-29T17:15:34.376Z,5.93
2023-04-29T17:18:00.691Z,5.90
2023-04-29T17:20:27.027Z,9.23
2023-04-29T17:22:53.343Z,5.87
2023-04-29T17:25:22.471Z,8.53
2023-04-29T17:27:48.916Z,7.63
2023-04-29T17:30:15.209Z,9.13
2023-04-29T17:32:43.769Z,10.40
2023-04-29T17:35:10.611Z,4.83
2023-04-29T17:37:36.923Z,6.37
2023-04-29T17:40:03.803Z,7.57
2023-04-29T17:42:30.045Z,4.53
2023-04-29T17:44:56.349Z,6.47
2023-04-29T17:47:23.383Z,7.63
2023-04-29T17:49:51.937Z,5.13
2023-04-29T17:52:21.115Z,6.93
2023-04-29T17:54:48.482Z,5.93
2023-04-29T17:57:14.790Z,5.87
2023-04-29T17:59:41.112Z,7.83
2023-04-29T18:02:07.510Z,4.63
2023-04-29T18:04:33.760Z,7.93
2023-04-29T18:06:59.994Z,5.20
2023-04-29T18:09:26.526Z,10.47
2023-04-29T18:11:52.818Z,5.17
2023-04-29T18:14:19.113Z,5.67
2023-04-29T18:16:45.377Z,4.87
2023-04-29T18:19:12.292Z,6.27
2023-04-29T18:21:38.553Z,6.43
2023-04-29T18:24:05.170Z,6.20
2023-04-29T18:26:31.441Z,6.17
2023-04-29T18:28:57.728Z,7.80
2023-04-29T18:31:26.316Z,6.40
2023-04-29T18:33:52.725Z,6.67
2023-04-29T18:36:21.272Z,7.90
2023-04-29T18:38:47.721Z,4.87
2023-04-29T18:41:14.451Z,5.87
2023-04-29T18:43:41.100Z,3.97
2023-04-29T18:46:07.434Z,4.43
2023-04-29T18:48:35.704Z,6.97
2023-04-29T18:51:04.234Z,7.93
2023-04-29T18:53:30.856Z,6.63
2023-04-29T18:55:57.098Z,8.30
2023-04-29T18:58:25.935Z,5.10
2023-04-29T19:00:52.191Z,5.57
2023-04-29T19:03:18.433Z,4.57
2023-04-29T19:05:45.679Z,6.93
2023-04-29T19:08:15.307Z,5.03
2023-04-29T19:10:41.736Z,4.60
2023-04-29T19:13:08.023Z,4.37
2023-04-29T19:15:34.374Z,5.77
2023-04-29T19:18:00.723Z,5.73
2023-04-29T19:20:27.394Z,3.83
2023-04-29T19:22:53.674Z,5.33
2023-04-29T19:25:21.112Z,5.43
2023-04-29T19:27:48.964Z,4.60
2023-04-29T19:30:16.451Z,6.87
2023-04-29T19:32:42.766Z,7.63
2023-04-29T19:35:09.183Z,7.77
2023-04-29T19:37:35.600Z,6.40
2023-04-29T19:40:01.906Z,5.17
2023-04-29T19:42:28.263Z,5.30
2023-04-29T19:44:54.504Z,7.20
2023-04-29T19:47:21.679Z,7.50
2023-04-29T19:49:49.221Z,5.63
2023-04-29T19:52:15.552Z,5.20
2023-04-29T19:54:41.816Z,5.70
2023-04-29T19:57:08.108Z,7.33
2023-04-29T19:59:34.651Z,8.33
2023-04-29T20:02:01.023Z,7.20
2023-04-29T20:04:27.770Z,7.43
2023-04-29T20:06:54.023Z,8.40
2023-04-29T20:09:20.385Z,7.10
2023-04-29T20:11:46.925Z,6.47
2023-04-29T20:14:13.173Z,6.23
2023-04-29T20:16:39.536Z,7.87
2023-04-29T20:19:05.836Z,6.97
2023-04-29T20:21:32.579Z,6.43
2023-04-29T20:23:59.086Z,5.80
2023-04-29T20:26:25.448Z,7.20
2023-04-29T20:28:51.711Z,8.50
2023-04-29T20:31:18.170Z,6.87
2023-04-29T20:33:44.401Z,8.03
2023-04-29T20:36:11.074Z,7.20
2023-04-29T20:38:37.490Z,8.40
2023-04-29T20:41:05.565Z,8.13
2023-04-29T20:43:32.210Z,10.93
2023-04-29T20:46:00.360Z,9.77
2023-04-29T20:48:27.645Z,8.03
2023-04-29T20:50:53.974Z,8.57
2023-04-29T20:53:20.223Z,6.13
2023-04-29T20:55:46.612Z,6.50
2023-04-29T20:58:12.918Z,7.13
2023-04-29T21:00:40.595Z,9.37
2023-04-29T21:03:07.642Z,7.53
2023-04-29T21:05:34.023Z,8.27
2023-04-29T21:08:00.268Z,7.47
2023-04-29T21:10:26.602Z,6.73
2023-04-29T21:12:52.857Z,8.23
2023-04-29T21:15:19.275Z,9.30
2023-04-29T21:17:45.981Z,9.10
2023-04-29T21:20:12.420Z,9.13
2023-04-29T21:22:39.076Z,8.13
2023-04-29T21:25:05.468Z,9.00
2023-04-29T21:27:31.695Z,10.13
2023-04-29T21:32:47.948Z,8.00
2023-04-29T21:35:14.258Z,8.83
2023-04-29T21:37:41.263Z,10.03
2023-04-29T21:40:07.782Z,9.50
2023-04-29T21:42:34.690Z,8.60
2023-04-29T21:45:01.617Z,8.90
2023-04-29T21:47:29.114Z,11.47
2023-04-29T21:49:55.901Z,10.27
2023-04-29T21:52:22.575Z,7.83
2023-04-29T21:54:48.829Z,7.90
2023-04-29T21:57:15.065Z,6.43
2023-04-29T21:59:41.363Z,9.90
2023-04-29T22:02:22.903Z,7.03
2023-04-29T22:04:50.353Z,8.03
2023-04-29T22:07:17.026Z,8.83
2023-04-29T22:09:47.089Z,7.73
2023-04-29T22:12:13.316Z,8.10
2023-04-29T22:14:39.578Z,7.33
2023-04-29T22:17:05.984Z,10.37
2023-04-29T22:19:32.262Z,7.70
2023-04-29T22:21:58.545Z,7.17
2023-04-29T22:24:24.792Z,8.27
2023-04-29T22:26:51.037Z,7.67
2023-04-29T22:29:19.184Z,9.70
2023-04-29T22:31:45.504Z,8.30
2023-04-29T22:34:11.788Z,7.13
2023-04-29T22:36:39.885Z,6.67
2023-04-29T22:39:06.730Z,9.23
2023-04-29T22:41:33.559Z,7.03
2023-04-29T22:43:59.868Z,6.33
2023-04-29T22:46:26.364Z,8.23
2023-04-29T22:48:52.742Z,5.77
2023-04-29T22:51:19.980Z,9.10
2023-04-29T22:53:46.726Z,4.93
2023-04-29T22:56:12.969Z,8.13
2023-04-29T22:58:40.557Z,5.67
2023-04-29T23:01:06.813Z,4.53
2023-04-29T23:03:33.104Z,6.07
2023-04-29T23:05:59.986Z,5.53
2023-04-29T23:08:27.307Z,5.13
2023-04-29T23:10:53.687Z,5.63
2023-04-29T23:13:19.971Z,5.90
2023-04-29T23:15:46.285Z,5.87
2023-04-29T23:18:12.635Z,7.70
2023-04-29T23:20:38.871Z,3.73
2023-04-29T23:23:05.446Z,8.47
2023-04-29T23:25:31.736Z,4.30
2023-04-29T23:27:58.050Z,7.20
2023-04-29T23:30:24.310Z,7.37
2023-04-29T23:32:50.631Z,7.87
2023-04-29T23:35:17.011Z,6.17
2023-04-29T23:37:43.415Z,4.67
2023-04-29T23:40:09.875Z,4.60
2023-04-29T23:42:36.155Z,4.90
2023-04-29T23:45:02.406Z,5.77
2023-04-29T23:47:28.705Z,5.37
2023-04-29T23:49:55.224Z,7.07
2023-04-29T23:52:21.774Z,5.37
2023-04-29T23:54:47.997Z,3.43
2023-04-29T23:57:14.263Z,6.37
2023-04-29T23:59:42.415Z,6.97
